sensor_id;sensor_type;location;lat;lon;timestamp;temperature;humidity
44775;DHT22;31340;51.402;0.016;2023-05-07T00:00:59;15.90;99.90
44775;DHT22;31340;51.402;0.016;2023-05-07T00:03:27;15.90;99.90
44775;DHT22;31340;51.402;0.016;2023-05-07T00:05:55;15.90;99.90
44775;DHT22;31340;51.402;0.016;2023-05-07T00:08:23;15.90;99.90
44775;DHT22;31340;51.402;0.016;2023-05-07T00:10:50;15.90;99.90
44775;DHT22;31340;51.402;0.016;2023-05-07T00:13:18;15.90;99.90
44775;DHT22;31340;51.402;0.016;2023-05-07T00:15:45;15.90;99.90
44775;DHT22;31340;51.402;0.016;2023-05-07T00:18:13;15.90;99.90
44775;DHT22;31340;51.402;0.016;2023-05-07T00:20:41;15.90;99.90
44775;DHT22;31340;51.402;0.016;2023-05-07T00:23:09;15.90;99.90
44775;DHT22;31340;51.402;0.016;2023-05-07T00:25:37;15.90;99.90
44775;DHT22;31340;51.402;0.016;2023-05-07T00:28:04;15.90;99.90
44775;DHT22;31340;51.402;0.016;2023-05-07T00:30:32;15.90;99.90
44775;DHT22;31340;51.402;0.016;2023-05-07T00:32:59;15.90;99.90
44775;DHT22;31340;51.402;0.016;2023-05-07T00:35:28;15.90;99.90
44775;DHT22;31340;51.402;0.016;2023-05-07T00:37:56;15.90;99.90
44775;DHT22;31340;51.402;0.016;2023-05-07T00:40:23;15.90;99.90
44775;DHT22;31340;51.402;0.016;2023-05-07T00:42:51;16.00;99.90
44775;DHT22;31340;51.402;0.016;2023-05-07T00:45:29;15.90;99.90
44775;DHT22;31340;51.402;0.016;2023-05-07T00:47:58;15.90;99.90
44775;DHT22;31340;51.402;0.016;2023-05-07T00:50:27;15.90;99.90
44775;DHT22;31340;51.402;0.016;2023-05-07T00:52:56;16.00;99.90
44775;DHT22;31340;51.402;0.016;2023-05-07T00:55:23;15.90;99.90
44775;DHT22;31340;51.402;0.016;2023-05-07T00:57:52;15.90;99.90
44775;DHT22;31340;51.402;0.016;2023-05-07T01:00:19;16.00;99.90
44775;DHT22;31340;51.402;0.016;2023-05-07T01:02:47;15.90;99.90
44775;DHT22;31340;51.402;0.016;2023-05-07T01:05:17;15.90;99.90
44775;DHT22;31340;51.402;0.016;2023-05-07T01:07:46;15.90;99.90
44775;DHT22;31340;51.402;0.016;2023-05-07T01:10:15;15.90;99.90
44775;DHT22;31340;51.402;0.016;2023-05-07T01:12:43;15.80;99.90
44775;DHT22;31340;51.402;0.016;2023-05-07T01:15:11;15.80;99.90
44775;DHT22;31340;51.402;0.016;2023-05-07T01:17:40;15.80;99.90
44775;DHT22;31340;51.402;0.016;2023-05-07T01:20:15;15.80;99.90
44775;DHT22;31340;51.402;0.016;2023-05-07T01:22:46;15.80;99.90
44775;DHT22;31340;51.402;0.016;2023-05-07T01:25:14;15.70;99.90
44775;DHT22;31340;51.402;0.016;2023-05-07T01:27:48;15.70;99.90
44775;DHT22;31340;51.402;0.016;2023-05-07T01:30:17;15.70;99.90
44775;DHT22;31340;51.402;0.016;2023-05-07T01:32:59;15.70;99.90
44775;DHT22;31340;51.402;0.016;2023-05-07T01:35:32;15.60;99.90
44775;DHT22;31340;51.402;0.016;2023-05-07T01:38:02;15.60;99.90
44775;DHT22;31340;51.402;0.016;2023-05-07T01:40:32;15.60;99.90
44775;DHT22;31340;51.402;0.016;2023-05-07T01:43:03;15.60;99.90
44775;DHT22;31340;51.402;0.016;2023-05-07T01:45:33;15.50;99.90
44775;DHT22;31340;51.402;0.016;2023-05-07T01:48:02;15.50;99.90
44775;DHT22;31340;51.402;0.016;2023-05-07T01:50:31;15.50;99.90
44775;DHT22;31340;51.402;0.016;2023-05-07T01:53:01;15.50;99.90
44775;DHT22;31340;51.402;0.016;2023-05-07T01:55:29;15.50;99.90
44775;DHT22;31340;51.402;0.016;2023-05-07T01:57:58;15.50;99.90
44775;DHT22;31340;51.402;0.016;2023-05-07T02:00:27;15.50;99.90
44775;DHT22;31340;51.402;0.016;2023-05-07T02:02:56;15.40;99.90
44775;DHT22;31340;51.402;0.016;2023-05-07T02:05:38;15.40;99.90
44775;DHT22;31340;51.402;0.016;2023-05-07T02:08:26;15.40;99.90
44775;DHT22;31340;51.402;0.016;2023-05-07T02:10:55;15.30;99.90
44775;DHT22;31340;51.402;0.016;2023-05-07T02:13:23;15.30;99.90
44775;DHT22;31340;51.402;0.016;2023-05-07T02:15:52;15.30;99.90
44775;DHT22;31340;51.402;0.016;2023-05-07T02:18:22;15.30;99.90
44775;DHT22;31340;51.402;0.016;2023-05-07T02:20:50;15.30;99.90
44775;DHT22;31340;51.402;0.016;2023-05-07T02:23:17;15.30;99.90
44775;DHT22;31340;51.402;0.016;2023-05-07T02:25:47;15.30;99.90
44775;DHT22;31340;51.402;0.016;2023-05-07T02:28:14;15.20;99.90
44775;DHT22;31340;51.402;0.016;2023-05-07T02:30:50;15.20;99.90
44775;DHT22;31340;51.402;0.016;2023-05-07T02:33:19;15.10;99.90
44775;DHT22;31340;51.402;0.016;2023-05-07T02:35:47;15.10;99.90
44775;DHT22;31340;51.402;0.016;2023-05-07T02:38:16;15.10;99.90
44775;DHT22;31340;51.402;0.016;2023-05-07T02:40:44;15.10;99.90
44775;DHT22;31340;51.402;0.016;2023-05-07T02:43:12;15.10;99.90
44775;DHT22;31340;51.402;0.016;2023-05-07T02:45:44;15.10;99.90
44775;DHT22;31340;51.402;0.016;2023-05-07T02:48:12;15.10;99.90
44775;DHT22;31340;51.402;0.016;2023-05-07T02:50:40;15.00;99.90
44775;DHT22;31340;51.402;0.016;2023-05-07T02:53:08;15.00;99.90
44775;DHT22;31340;51.402;0.016;2023-05-07T02:55:35;15.00;99.90
44775;DHT22;31340;51.402;0.016;2023-05-07T02:58:03;15.00;99.90
44775;DHT22;31340;51.402;0.016;2023-05-07T03:00:34;15.00;99.90
44775;DHT22;31340;51.402;0.016;2023-05-07T03:03:24;15.00;99.90
44775;DHT22;31340;51.402;0.016;2023-05-07T03:05:52;15.00;99.90
44775;DHT22;31340;51.402;0.016;2023-05-07T03:08:19;15.00;99.90
44775;DHT22;31340;51.402;0.016;2023-05-07T03:10:48;15.00;99.90
44775;DHT22;31340;51.402;0.016;2023-05-07T03:13:15;15.00;99.90
44775;DHT22;31340;51.402;0.016;2023-05-07T03:15:43;15.00;99.90
44775;DHT22;31340;51.402;0.016;2023-05-07T03:18:11;15.00;99.90
44775;DHT22;31340;51.402;0.016;2023-05-07T03:20:38;14.90;99.90
44775;DHT22;31340;51.402;0.016;2023-05-07T03:23:07;15.00;99.90
44775;DHT22;31340;51.402;0.016;2023-05-07T03:25:34;14.90;99.90
44775;DHT22;31340;51.402;0.016;2023-05-07T03:28:02;14.90;99.90
44775;DHT22;31340;51.402;0.016;2023-05-07T03:30:39;14.90;99.90
44775;DHT22;31340;51.402;0.016;2023-05-07T03:33:07;14.90;99.90
44775;DHT22;31340;51.402;0.016;2023-05-07T03:35:35;14.90;99.90
44775;DHT22;31340;51.402;0.016;2023-05-07T03:38:03;14.90;99.90
44775;DHT22;31340;51.402;0.016;2023-05-07T03:40:33;14.90;99.90
44775;DHT22;31340;51.402;0.016;2023-05-07T03:43:02;14.90;99.90
44775;DHT22;31340;51.402;0.016;2023-05-07T03:45:32;14.80;99.90
44775;DHT22;31340;51.402;0.016;2023-05-07T03:48:16;14.90;99.90
44775;DHT22;31340;51.402;0.016;2023-05-07T03:50:46;14.90;99.90
44775;DHT22;31340;51.402;0.016;2023-05-07T03:53:16;14.90;99.90
44775;DHT22;31340;51.402;0.016;2023-05-07T03:55:44;14.90;99.90
44775;DHT22;31340;51.402;0.016;2023-05-07T03:58:11;14.90;99.90
44775;DHT22;31340;51.402;0.016;2023-05-07T04:00:39;14.90;99.90
44775;DHT22;31340;51.402;0.016;2023-05-07T04:03:28;14.90;99.90
44775;DHT22;31340;51.402;0.016;2023-05-07T04:05:59;14.80;99.90
44775;DHT22;31340;51.402;0.016;2023-05-07T04:08:26;14.80;99.90
44775;DHT22;31340;51.402;0.016;2023-05-07T04:10:58;14.80;99.90
44775;DHT22;31340;51.402;0.016;2023-05-07T04:13:30;14.80;99.90
44775;DHT22;31340;51.402;0.016;2023-05-07T04:16:01;14.80;99.90
44775;DHT22;31340;51.402;0.016;2023-05-07T04:18:29;14.80;99.90
44775;DHT22;31340;51.402;0.016;2023-05-07T04:20:57;14.80;99.90
44775;DHT22;31340;51.402;0.016;2023-05-07T04:23:24;14.80;99.90
44775;DHT22;31340;51.402;0.016;2023-05-07T04:25:53;14.80;99.90
44775;DHT22;31340;51.402;0.016;2023-05-07T04:28:31;14.70;99.90
44775;DHT22;31340;51.402;0.016;2023-05-07T04:30:58;14.70;99.90
44775;DHT22;31340;51.402;0.016;2023-05-07T04:33:26;14.70;99.90
44775;DHT22;31340;51.402;0.016;2023-05-07T04:35:56;14.70;99.90
44775;DHT22;31340;51.402;0.016;2023-05-07T04:38:25;14.70;99.90
44775;DHT22;31340;51.402;0.016;2023-05-07T04:40:54;14.80;99.90
44775;DHT22;31340;51.402;0.016;2023-05-07T04:43:24;14.80;99.90
44775;DHT22;31340;51.402;0.016;2023-05-07T04:45:52;14.70;99.90
44775;DHT22;31340;51.402;0.016;2023-05-07T04:48:22;14.80;99.90
44775;DHT22;31340;51.402;0.016;2023-05-07T04:50:52;14.80;99.90
44775;DHT22;31340;51.402;0.016;2023-05-07T04:53:21;14.80;99.90
44775;DHT22;31340;51.402;0.016;2023-05-07T04:55:57;14.80;99.90
44775;DHT22;31340;51.402;0.016;2023-05-07T04:58:30;14.80;99.90
44775;DHT22;31340;51.402;0.016;2023-05-07T05:00:59;14.70;99.90
44775;DHT22;31340;51.402;0.016;2023-05-07T05:03:28;14.70;99.90
44775;DHT22;31340;51.402;0.016;2023-05-07T05:05:57;14.80;99.90
44775;DHT22;31340;51.402;0.016;2023-05-07T05:08:30;14.80;99.90
44775;DHT22;31340;51.402;0.016;2023-05-07T05:11:01;14.80;99.90
44775;DHT22;31340;51.402;0.016;2023-05-07T05:13:31;14.80;99.90
44775;DHT22;31340;51.402;0.016;2023-05-07T05:16:01;14.70;99.90
44775;DHT22;31340;51.402;0.016;2023-05-07T05:18:32;14.80;99.90
44775;DHT22;31340;51.402;0.016;2023-05-07T05:21:00;14.70;99.90
44775;DHT22;31340;51.402;0.016;2023-05-07T05:23:29;14.80;99.90
44775;DHT22;31340;51.402;0.016;2023-05-07T05:25:57;14.80;99.90
44775;DHT22;31340;51.402;0.016;2023-05-07T05:28:28;14.80;99.90
44775;DHT22;31340;51.402;0.016;2023-05-07T05:30:56;14.80;99.90
44775;DHT22;31340;51.402;0.016;2023-05-07T05:33:26;14.80;99.90
44775;DHT22;31340;51.402;0.016;2023-05-07T05:35:54;14.80;99.90
44775;DHT22;31340;51.402;0.016;2023-05-07T05:38:22;14.80;99.90
44775;DHT22;31340;51.402;0.016;2023-05-07T05:40:50;14.80;99.90
44775;DHT22;31340;51.402;0.016;2023-05-07T05:43:18;14.80;99.90
44775;DHT22;31340;51.402;0.016;2023-05-07T05:45:46;14.80;99.90
44775;DHT22;31340;51.402;0.016;2023-05-07T05:48:14;14.80;99.90
44775;DHT22;31340;51.402;0.016;2023-05-07T05:50:42;14.80;99.90
44775;DHT22;31340;51.402;0.016;2023-05-07T05:53:10;14.80;99.90
44775;DHT22;31340;51.402;0.016;2023-05-07T05:55:39;14.80;99.90
44775;DHT22;31340;51.402;0.016;2023-05-07T05:58:06;14.80;99.90
44775;DHT22;31340;51.402;0.016;2023-05-07T06:00:38;14.90;99.90
44775;DHT22;31340;51.402;0.016;2023-05-07T06:03:07;14.80;99.90
44775;DHT22;31340;51.402;0.016;2023-05-07T06:05:36;14.90;99.90
44775;DHT22;31340;51.402;0.016;2023-05-07T06:08:03;15.00;99.90
44775;DHT22;31340;51.402;0.016;2023-05-07T06:10:33;14.90;99.90
44775;DHT22;31340;51.402;0.016;2023-05-07T06:13:01;14.90;99.90
44775;DHT22;31340;51.402;0.016;2023-05-07T06:15:29;15.00;99.90
44775;DHT22;31340;51.402;0.016;2023-05-07T06:18:02;15.00;99.90
44775;DHT22;31340;51.402;0.016;2023-05-07T06:20:30;15.00;99.90
44775;DHT22;31340;51.402;0.016;2023-05-07T06:22:59;15.00;99.90
44775;DHT22;31340;51.402;0.016;2023-05-07T06:25:27;15.00;99.90
44775;DHT22;31340;51.402;0.016;2023-05-07T06:27:55;15.00;99.90
44775;DHT22;31340;51.402;0.016;2023-05-07T06:30:24;15.10;99.90
44775;DHT22;31340;51.402;0.016;2023-05-07T06:32:52;15.10;99.90
44775;DHT22;31340;51.402;0.016;2023-05-07T06:35:20;15.10;99.90
44775;DHT22;31340;51.402;0.016;2023-05-07T06:37:47;15.10;99.90
44775;DHT22;31340;51.402;0.016;2023-05-07T06:40:22;15.10;99.90
44775;DHT22;31340;51.402;0.016;2023-05-07T06:42:50;15.10;99.90
44775;DHT22;31340;51.402;0.016;2023-05-07T06:45:50;15.20;99.90
44775;DHT22;31340;51.402;0.016;2023-05-07T06:48:18;15.10;99.90
44775;DHT22;31340;51.402;0.016;2023-05-07T06:50:53;15.20;99.90
44775;DHT22;31340;51.402;0.016;2023-05-07T06:53:24;15.20;99.90
44775;DHT22;31340;51.402;0.016;2023-05-07T06:55:53;15.20;99.90
44775;DHT22;31340;51.402;0.016;2023-05-07T06:58:21;15.20;99.90
44775;DHT22;31340;51.402;0.016;2023-05-07T07:00:49;15.20;99.90
44775;DHT22;31340;51.402;0.016;2023-05-07T07:03:16;15.20;99.90
44775;DHT22;31340;51.402;0.016;2023-05-07T07:05:45;15.20;99.90
44775;DHT22;31340;51.402;0.016;2023-05-07T07:08:13;15.20;99.90
44775;DHT22;31340;51.402;0.016;2023-05-07T07:10:41;15.20;99.90
44775;DHT22;31340;51.402;0.016;2023-05-07T07:13:08;15.20;99.90
44775;DHT22;31340;51.402;0.016;2023-05-07T07:15:36;15.30;99.90
44775;DHT22;31340;51.402;0.016;2023-05-07T07:18:04;15.30;99.90
44775;DHT22;31340;51.402;0.016;2023-05-07T07:20:32;15.30;99.90
44775;DHT22;31340;51.402;0.016;2023-05-07T07:23:00;15.40;99.90
44775;DHT22;31340;51.402;0.016;2023-05-07T07:25:28;15.40;99.90
44775;DHT22;31340;51.402;0.016;2023-05-07T07:27:55;15.50;99.90
44775;DHT22;31340;51.402;0.016;2023-05-07T07:30:25;15.50;99.90
44775;DHT22;31340;51.402;0.016;2023-05-07T07:32:53;15.50;99.90
44775;DHT22;31340;51.402;0.016;2023-05-07T07:35:22;15.50;99.90
44775;DHT22;31340;51.402;0.016;2023-05-07T07:37:52;15.50;99.90
44775;DHT22;31340;51.402;0.016;2023-05-07T07:40:20;15.50;99.90
44775;DHT22;31340;51.402;0.016;2023-05-07T07:42:48;15.60;99.90
44775;DHT22;31340;51.402;0.016;2023-05-07T07:45:15;15.60;99.90
44775;DHT22;31340;51.402;0.016;2023-05-07T07:47:46;15.60;99.90
44775;DHT22;31340;51.402;0.016;2023-05-07T07:50:14;15.60;99.90
44775;DHT22;31340;51.402;0.016;2023-05-07T07:52:58;15.50;99.90
44775;DHT22;31340;51.402;0.016;2023-05-07T07:55:26;15.60;99.90
44775;DHT22;31340;51.402;0.016;2023-05-07T07:57:55;15.60;99.90
44775;DHT22;31340;51.402;0.016;2023-05-07T08:00:24;15.60;99.90
44775;DHT22;31340;51.402;0.016;2023-05-07T08:02:55;15.60;99.90
44775;DHT22;31340;51.402;0.016;2023-05-07T08:05:29;15.70;99.90
44775;DHT22;31340;51.402;0.016;2023-05-07T08:07:58;15.70;99.90
44775;DHT22;31340;51.402;0.016;2023-05-07T08:10:30;15.70;99.90
44775;DHT22;31340;51.402;0.016;2023-05-07T08:13:06;15.70;99.90
44775;DHT22;31340;51.402;0.016;2023-05-07T08:15:36;15.70;99.90
44775;DHT22;31340;51.402;0.016;2023-05-07T08:18:04;15.70;99.90
44775;DHT22;31340;51.402;0.016;2023-05-07T08:20:33;15.80;99.90
44775;DHT22;31340;51.402;0.016;2023-05-07T08:23:05;15.80;99.90
44775;DHT22;31340;51.402;0.016;2023-05-07T08:25:34;15.80;99.90
44775;DHT22;31340;51.402;0.016;2023-05-07T08:28:02;15.80;99.90
44775;DHT22;31340;51.402;0.016;2023-05-07T08:30:31;15.90;99.90
44775;DHT22;31340;51.402;0.016;2023-05-07T08:32:59;15.90;99.90
44775;DHT22;31340;51.402;0.016;2023-05-07T08:35:28;16.00;99.90
44775;DHT22;31340;51.402;0.016;2023-05-07T08:37:56;16.00;99.90
44775;DHT22;31340;51.402;0.016;2023-05-07T08:40:26;16.10;99.90
44775;DHT22;31340;51.402;0.016;2023-05-07T08:42:57;16.10;99.90
44775;DHT22;31340;51.402;0.016;2023-05-07T08:45:26;16.20;99.90
44775;DHT22;31340;51.402;0.016;2023-05-07T08:47:59;16.30;99.90
44775;DHT22;31340;51.402;0.016;2023-05-07T08:50:35;16.30;99.90
44775;DHT22;31340;51.402;0.016;2023-05-07T08:53:05;16.30;99.90
44775;DHT22;31340;51.402;0.016;2023-05-07T08:55:33;16.40;99.90
44775;DHT22;31340;51.402;0.016;2023-05-07T08:58:01;16.40;99.90
44775;DHT22;31340;51.402;0.016;2023-05-07T09:00:30;16.50;99.90
44775;DHT22;31340;51.402;0.016;2023-05-07T09:03:00;16.50;99.90
44775;DHT22;31340;51.402;0.016;2023-05-07T09:05:28;16.50;99.90
44775;DHT22;31340;51.402;0.016;2023-05-07T09:07:59;16.60;99.90
44775;DHT22;31340;51.402;0.016;2023-05-07T09:10:28;16.60;99.90
44775;DHT22;31340;51.402;0.016;2023-05-07T09:12:56;16.70;99.90
44775;DHT22;31340;51.402;0.016;2023-05-07T09:15:24;16.80;99.90
44775;DHT22;31340;51.402;0.016;2023-05-07T09:17:53;16.80;99.90
44775;DHT22;31340;51.402;0.016;2023-05-07T09:20:21;16.80;99.90
44775;DHT22;31340;51.402;0.016;2023-05-07T09:22:49;16.90;99.90
44775;DHT22;31340;51.402;0.016;2023-05-07T09:25:28;17.00;99.90
44775;DHT22;31340;51.402;0.016;2023-05-07T09:27:57;17.10;99.90
44775;DHT22;31340;51.402;0.016;2023-05-07T09:30:32;17.10;99.90
44775;DHT22;31340;51.402;0.016;2023-05-07T09:33:03;17.30;99.90
44775;DHT22;31340;51.402;0.016;2023-05-07T09:35:33;17.30;99.90
44775;DHT22;31340;51.402;0.016;2023-05-07T09:38:08;17.50;99.90
44775;DHT22;31340;51.402;0.016;2023-05-07T09:40:36;17.60;99.90
44775;DHT22;31340;51.402;0.016;2023-05-07T09:43:10;17.70;99.90
44775;DHT22;31340;51.402;0.016;2023-05-07T09:45:42;17.80;99.90
44775;DHT22;31340;51.402;0.016;2023-05-07T09:48:12;17.90;99.90
44775;DHT22;31340;51.402;0.016;2023-05-07T09:50:49;18.00;99.90
44775;DHT22;31340;51.402;0.016;2023-05-07T09:53:22;18.20;99.90
44775;DHT22;31340;51.402;0.016;2023-05-07T09:55:51;18.30;99.90
44775;DHT22;31340;51.402;0.016;2023-05-07T09:58:21;18.50;99.90
44775;DHT22;31340;51.402;0.016;2023-05-07T10:00:51;18.60;99.90
44775;DHT22;31340;51.402;0.016;2023-05-07T10:03:21;18.70;99.90
44775;DHT22;31340;51.402;0.016;2023-05-07T10:05:55;18.80;99.90
44775;DHT22;31340;51.402;0.016;2023-05-07T10:08:24;18.90;99.90
44775;DHT22;31340;51.402;0.016;2023-05-07T10:10:55;19.00;99.90
44775;DHT22;31340;51.402;0.016;2023-05-07T10:13:25;19.00;99.90
44775;DHT22;31340;51.402;0.016;2023-05-07T10:15:56;19.10;99.90
44775;DHT22;31340;51.402;0.016;2023-05-07T10:18:26;19.20;99.90
44775;DHT22;31340;51.402;0.016;2023-05-07T10:21:12;19.20;99.90
44775;DHT22;31340;51.402;0.016;2023-05-07T10:23:51;19.30;99.90
44775;DHT22;31340;51.402;0.016;2023-05-07T10:26:22;19.30;99.90
44775;DHT22;31340;51.402;0.016;2023-05-07T10:28:56;19.30;99.90
44775;DHT22;31340;51.402;0.016;2023-05-07T10:34:43;19.40;99.90
44775;DHT22;31340;51.402;0.016;2023-05-07T10:37:13;19.50;99.90
44775;DHT22;31340;51.402;0.016;2023-05-07T10:39:41;19.50;99.90
44775;DHT22;31340;51.402;0.016;2023-05-07T10:42:11;19.50;99.90
44775;DHT22;31340;51.402;0.016;2023-05-07T10:44:46;19.50;99.90
44775;DHT22;31340;51.402;0.016;2023-05-07T10:47:21;19.60;99.70
44775;DHT22;31340;51.402;0.016;2023-05-07T10:52:24;19.60;99.80
44775;DHT22;31340;51.402;0.016;2023-05-07T10:57:53;19.60;99.10
44775;DHT22;31340;51.402;0.016;2023-05-07T11:03:09;19.60;98.90
44775;DHT22;31340;51.402;0.016;2023-05-07T11:06:12;19.70;98.80
44775;DHT22;31340;51.402;0.016;2023-05-07T11:09:06;19.70;98.70
44775;DHT22;31340;51.402;0.016;2023-05-07T11:11:49;19.70;98.70
44775;DHT22;31340;51.402;0.016;2023-05-07T11:14:43;19.70;98.50
44775;DHT22;31340;51.402;0.016;2023-05-07T11:17:23;19.80;98.60
44775;DHT22;31340;51.402;0.016;2023-05-07T11:19:59;19.90;98.50
44775;DHT22;31340;51.402;0.016;2023-05-07T11:22:39;20.00;98.50
44775;DHT22;31340;51.402;0.016;2023-05-07T11:25:25;20.10;98.40
44775;DHT22;31340;51.402;0.016;2023-05-07T11:28:13;20.10;98.30
44775;DHT22;31340;51.402;0.016;2023-05-07T11:30:47;20.20;98.00
44775;DHT22;31340;51.402;0.016;2023-05-07T11:33:18;20.30;97.70
44775;DHT22;31340;51.402;0.016;2023-05-07T11:35:48;20.30;97.40
44775;DHT22;31340;51.402;0.016;2023-05-07T11:38:18;20.40;97.20
44775;DHT22;31340;51.402;0.016;2023-05-07T11:40:56;20.40;97.20
44775;DHT22;31340;51.402;0.016;2023-05-07T11:43:23;20.40;97.10
44775;DHT22;31340;51.402;0.016;2023-05-07T11:45:51;20.50;97.10
44775;DHT22;31340;51.402;0.016;2023-05-07T11:48:21;20.50;96.80
44775;DHT22;31340;51.402;0.016;2023-05-07T11:51:00;20.60;96.80
44775;DHT22;31340;51.402;0.016;2023-05-07T11:53:35;20.60;96.60
44775;DHT22;31340;51.402;0.016;2023-05-07T11:56:13;20.60;96.50
44775;DHT22;31340;51.402;0.016;2023-05-07T11:58:41;20.70;96.40
44775;DHT22;31340;51.402;0.016;2023-05-07T12:01:11;20.70;96.40
44775;DHT22;31340;51.402;0.016;2023-05-07T12:03:43;20.70;96.10
44775;DHT22;31340;51.402;0.016;2023-05-07T12:06:16;20.70;95.90
44775;DHT22;31340;51.402;0.016;2023-05-07T12:08:45;20.70;96.00
44775;DHT22;31340;51.402;0.016;2023-05-07T12:11:16;20.70;96.00
44775;DHT22;31340;51.402;0.016;2023-05-07T12:13:48;20.80;95.80
44775;DHT22;31340;51.402;0.016;2023-05-07T12:16:16;20.80;95.90
44775;DHT22;31340;51.402;0.016;2023-05-07T12:18:45;20.80;96.30
44775;DHT22;31340;51.402;0.016;2023-05-07T12:21:12;20.90;95.90
44775;DHT22;31340;51.402;0.016;2023-05-07T12:23:40;20.90;95.90
44775;DHT22;31340;51.402;0.016;2023-05-07T12:26:08;20.90;95.50
44775;DHT22;31340;51.402;0.016;2023-05-07T12:28:39;21.00;95.40
44775;DHT22;31340;51.402;0.016;2023-05-07T12:31:07;21.00;95.10
44775;DHT22;31340;51.402;0.016;2023-05-07T12:33:35;21.10;95.10
44775;DHT22;31340;51.402;0.016;2023-05-07T12:36:06;21.20;95.30
44775;DHT22;31340;51.402;0.016;2023-05-07T12:38:38;21.30;95.50
44775;DHT22;31340;51.402;0.016;2023-05-07T12:41:08;21.40;95.50
44775;DHT22;31340;51.402;0.016;2023-05-07T12:43:36;21.50;95.00
44775;DHT22;31340;51.402;0.016;2023-05-07T12:46:06;21.60;94.50
44775;DHT22;31340;51.402;0.016;2023-05-07T12:48:37;21.70;94.30
44775;DHT22;31340;51.402;0.016;2023-05-07T12:51:05;21.70;94.10
44775;DHT22;31340;51.402;0.016;2023-05-07T12:53:39;21.80;93.90
44775;DHT22;31340;51.402;0.016;2023-05-07T12:56:07;21.80;93.50
44775;DHT22;31340;51.402;0.016;2023-05-07T12:58:36;21.90;93.60
44775;DHT22;31340;51.402;0.016;2023-05-07T13:01:07;21.90;93.40
44775;DHT22;31340;51.402;0.016;2023-05-07T13:03:38;22.10;93.10
44775;DHT22;31340;51.402;0.016;2023-05-07T13:06:10;22.10;92.90
44775;DHT22;31340;51.402;0.016;2023-05-07T13:08:41;22.10;92.70
44775;DHT22;31340;51.402;0.016;2023-05-07T13:11:11;22.20;92.80
44775;DHT22;31340;51.402;0.016;2023-05-07T13:13:40;22.30;92.70
44775;DHT22;31340;51.402;0.016;2023-05-07T13:16:10;22.30;92.50
44775;DHT22;31340;51.402;0.016;2023-05-07T13:18:39;22.30;92.30
44775;DHT22;31340;51.402;0.016;2023-05-07T13:21:07;22.30;92.40
44775;DHT22;31340;51.402;0.016;2023-05-07T13:23:35;22.40;92.10
44775;DHT22;31340;51.402;0.016;2023-05-07T13:26:03;22.40;91.80
44775;DHT22;31340;51.402;0.016;2023-05-07T13:28:53;22.40;91.80
44775;DHT22;31340;51.402;0.016;2023-05-07T13:31:20;22.40;92.10
44775;DHT22;31340;51.402;0.016;2023-05-07T13:33:48;22.50;92.10
44775;DHT22;31340;51.402;0.016;2023-05-07T13:36:16;22.50;91.60
44775;DHT22;31340;51.402;0.016;2023-05-07T13:38:43;22.60;91.50
44775;DHT22;31340;51.402;0.016;2023-05-07T13:41:11;22.60;91.20
44775;DHT22;31340;51.402;0.016;2023-05-07T13:43:40;22.70;90.90
44775;DHT22;31340;51.402;0.016;2023-05-07T13:46:08;22.70;90.90
44775;DHT22;31340;51.402;0.016;2023-05-07T13:48:37;22.70;90.90
44775;DHT22;31340;51.402;0.016;2023-05-07T13:51:05;22.70;90.90
44775;DHT22;31340;51.402;0.016;2023-05-07T13:53:32;22.80;90.60
44775;DHT22;31340;51.402;0.016;2023-05-07T13:56:01;22.90;90.20
44775;DHT22;31340;51.402;0.016;2023-05-07T13:58:29;22.90;90.10
44775;DHT22;31340;51.402;0.016;2023-05-07T14:00:56;23.00;90.10
44775;DHT22;31340;51.402;0.016;2023-05-07T14:03:24;23.00;90.60
44775;DHT22;31340;51.402;0.016;2023-05-07T14:05:52;23.30;90.20
44775;DHT22;31340;51.402;0.016;2023-05-07T14:08:19;23.40;90.00
44775;DHT22;31340;51.402;0.016;2023-05-07T14:10:48;23.50;88.70
44775;DHT22;31340;51.402;0.016;2023-05-07T14:13:15;23.70;87.60
44775;DHT22;31340;51.402;0.016;2023-05-07T14:15:44;23.90;86.80
44775;DHT22;31340;51.402;0.016;2023-05-07T14:18:14;23.90;85.40
44775;DHT22;31340;51.402;0.016;2023-05-07T14:20:42;24.10;85.20
44775;DHT22;31340;51.402;0.016;2023-05-07T14:23:14;24.20;84.10
44775;DHT22;31340;51.402;0.016;2023-05-07T14:25:41;24.30;82.80
44775;DHT22;31340;51.402;0.016;2023-05-07T14:28:10;24.30;82.80
44775;DHT22;31340;51.402;0.016;2023-05-07T14:30:38;24.30;82.50
44775;DHT22;31340;51.402;0.016;2023-05-07T14:33:06;24.50;82.90
44775;DHT22;31340;51.402;0.016;2023-05-07T14:35:34;24.60;82.80
44775;DHT22;31340;51.402;0.016;2023-05-07T14:38:02;24.70;81.80
44775;DHT22;31340;51.402;0.016;2023-05-07T14:40:29;25.00;81.30
44775;DHT22;31340;51.402;0.016;2023-05-07T14:42:57;25.10;80.40
44775;DHT22;31340;51.402;0.016;2023-05-07T14:45:25;25.40;79.60
44775;DHT22;31340;51.402;0.016;2023-05-07T14:47:52;25.60;78.60
44775;DHT22;31340;51.402;0.016;2023-05-07T14:50:20;25.80;77.30
44775;DHT22;31340;51.402;0.016;2023-05-07T14:52:48;26.20;75.40
44775;DHT22;31340;51.402;0.016;2023-05-07T14:55:16;26.40;74.60
44775;DHT22;31340;51.402;0.016;2023-05-07T14:57:44;26.60;73.60
44775;DHT22;31340;51.402;0.016;2023-05-07T15:00:12;26.90;73.20
44775;DHT22;31340;51.402;0.016;2023-05-07T15:02:40;27.10;72.70
44775;DHT22;31340;51.402;0.016;2023-05-07T15:05:08;27.50;71.10
44775;DHT22;31340;51.402;0.016;2023-05-07T15:07:36;27.80;69.60
44775;DHT22;31340;51.402;0.016;2023-05-07T15:10:06;28.00;67.40
44775;DHT22;31340;51.402;0.016;2023-05-07T15:12:34;28.20;67.00
44775;DHT22;31340;51.402;0.016;2023-05-07T15:15:02;28.50;65.60
44775;DHT22;31340;51.402;0.016;2023-05-07T15:17:30;28.70;63.70
44775;DHT22;31340;51.402;0.016;2023-05-07T15:19:58;28.80;62.20
44775;DHT22;31340;51.402;0.016;2023-05-07T15:22:26;28.90;63.70
44775;DHT22;31340;51.402;0.016;2023-05-07T15:24:53;29.00;64.10
44775;DHT22;31340;51.402;0.016;2023-05-07T15:27:23;29.30;63.30
44775;DHT22;31340;51.402;0.016;2023-05-07T15:29:51;29.50;60.20
44775;DHT22;31340;51.402;0.016;2023-05-07T15:32:18;29.70;58.80
44775;DHT22;31340;51.402;0.016;2023-05-07T15:34:46;29.90;59.10
44775;DHT22;31340;51.402;0.016;2023-05-07T15:37:16;30.10;57.90
44775;DHT22;31340;51.402;0.016;2023-05-07T15:39:45;30.30;57.00
44775;DHT22;31340;51.402;0.016;2023-05-07T15:42:13;30.40;55.80
44775;DHT22;31340;51.402;0.016;2023-05-07T15:44:40;30.50;55.90
44775;DHT22;31340;51.402;0.016;2023-05-07T15:47:08;30.60;54.80
44775;DHT22;31340;51.402;0.016;2023-05-07T15:49:36;30.70;55.70
44775;DHT22;31340;51.402;0.016;2023-05-07T15:52:04;30.80;54.60
44775;DHT22;31340;51.402;0.016;2023-05-07T15:54:31;31.00;53.70
44775;DHT22;31340;51.402;0.016;2023-05-07T15:56:59;31.00;53.20
44775;DHT22;31340;51.402;0.016;2023-05-07T15:59:28;31.00;53.20